Terminal Aerodrome Forecast
Issued by NWS

Home | Current Version | Previous Version | Text Only | Print | Product List | Glossary On
Versions: 1 2 3 4 5 6 7 8 9 10 11 12 13 14 15 16 17 18 19 20 21 22 23 24 25 26 27 28 29 30 31 32 33 34 35 36 37 38 39 40 41 42 43 44 45 46 47 48 49 50
000
FTUS41 KRLX 200549
TAFCKB
TAF
KCKB 200549Z 2006/2106 VRB03KT P6SM VCTS BKN070CB
      TEMPO 2006/2008 4SM -SHRA BR OVC025
     FM201100 21006KT P6SM -SHRA VCTS OVC025CB
     FM201400 22011G20KT P6SM VCTS OVC025CB
     FM201800 23012G22KT P6SM OVC040
     FM202300 25011G21KT 6SM -SHRA BR OVC025
     FM210500 28010G17KT 5SM -SHRA BR OVC007=

USA.gov is the U.S. government's official web portal to all federal, state and local government web resources and services.